Back to Top

Language: 

My Weather Underground Personal Weather Station Historical Data with Graphs...

Delerius Weather Station Historical Data
Daily Summary for July 9, 2017 Units:  English    Metric   Both
« Previous Day
Next Day »
Daily Weekly Monthly Yearly Custom
  High: Low: Average:
Temperature: 78.4 °F 51.3 °F 66.4 °F
Dew Point: 60.2 °F 48.7 °F 55.9 °F
Humidity: 93 % 50 % 71 %
Wind Speed: 9.0 mph 0.0 mph 4.2 mph
Wind Gust: 18.0 mph - -
Wind:- - West
Pressure: 30.00 in 29.78 in -
Precipitation: 0.00 in    
Historical Graphs
 
 
Tabular Data for July 9, 2017
Time Temperature Dew Point Pressure Wind Wind Speed Wind Gust Humidity Rainfall Rate (Hourly) solar Conditions
00:03 56.8 °F 51.7 °F 30.00 in Calm     83 % 0.00 in 0 W/m2
00:08 56.5 °F 51.4 °F 30.00 in Calm     83 % 0.00 in 0 W/m2
00:13 56.1 °F 51.4 °F 30.00 in Calm     84 % 0.00 in 0 W/m2
00:17 55.9 °F 51.2 °F 30.00 in Calm     84 % 0.00 in 0 W/m2
00:22 55.6 °F 51.1 °F 30.00 in Calm     85 % 0.00 in 0 W/m2
00:28 55.2 °F 51.1 °F 30.00 in Calm     86 % 0.00 in 0 W/m2
00:33 55.0 °F 50.9 °F 30.00 in Calm     86 % 0.00 in 0 W/m2
00:38 54.9 °F 51.1 °F 30.00 in Calm     87 % 0.00 in 0 W/m2
00:43 54.7 °F 50.9 °F 29.99 in Calm     87 % 0.00 in 0 W/m2
00:48 54.5 °F 51.0 °F 29.99 in Calm     88 % 0.00 in 0 W/m2
00:53 54.3 °F 50.8 °F 29.99 in Calm     88 % 0.00 in 0 W/m2
00:58 54.1 °F 50.7 °F 29.98 in Calm     88 % 0.00 in 0 W/m2
01:03 54.1 °F 51.0 °F 29.98 in Calm     89 % 0.00 in 0 W/m2
01:08 54.1 °F 51.0 °F 29.98 in Calm   2.0 mph 89 % 0.00 in 0 W/m2
01:13 54.3 °F 51.1 °F 29.98 in Calm   2.0 mph 89 % 0.00 in 0 W/m2
01:18 54.3 °F 51.1 °F 29.97 in Calm   1.0 mph 89 % 0.00 in 0 W/m2
01:23 54.3 °F 51.1 °F 29.97 in Calm     89 % 0.00 in 0 W/m2
01:28 54.1 °F 51.0 °F 29.97 in Calm     89 % 0.00 in 0 W/m2
01:33 54.0 °F 50.8 °F 29.97 in Calm     89 % 0.00 in 0 W/m2
01:38 53.8 °F 50.6 °F 29.97 in Calm     89 % 0.00 in 0 W/m2
01:43 53.8 °F 50.6 °F 29.97 in Calm     89 % 0.00 in 0 W/m2
01:48 53.6 °F 50.4 °F 29.97 in Calm     89 % 0.00 in 0 W/m2
01:53 53.4 °F 50.3 °F 29.97 in Calm     89 % 0.00 in 0 W/m2
01:58 53.2 °F 50.1 °F 29.97 in Calm     89 % 0.00 in 0 W/m2
02:03 53.1 °F 49.9 °F 29.97 in Calm     89 % 0.00 in 0 W/m2
02:08 52.7 °F 49.5 °F 29.97 in Calm     89 % 0.00 in 0 W/m2
02:13 52.5 °F 49.7 °F 29.97 in Calm     90 % 0.00 in 0 W/m2
02:18 52.5 °F 49.7 °F 29.97 in Calm     90 % 0.00 in 0 W/m2
02:23 52.3 °F 49.5 °F 29.97 in Calm     90 % 0.00 in 0 W/m2
02:28 52.3 °F 49.5 °F 29.97 in Calm     90 % 0.00 in 0 W/m2
02:33 52.2 °F 49.3 °F 29.97 in Calm     90 % 0.00 in 0 W/m2
02:38 52.2 °F 49.6 °F 29.97 in Calm     91 % 0.00 in 0 W/m2
02:43 52.0 °F 49.4 °F 29.96 in Calm     91 % 0.00 in 0 W/m2
02:48 52.0 °F 49.4 °F 29.96 in Calm     91 % 0.00 in 0 W/m2
02:53 52.0 °F 49.4 °F 29.96 in Calm     91 % 0.00 in 0 W/m2
02:58 52.0 °F 49.4 °F 29.96 in Calm     91 % 0.00 in 0 W/m2
03:03 52.0 °F 49.4 °F 29.96 in Calm     91 % 0.00 in 0 W/m2
03:08 52.0 °F 49.4 °F 29.95 in Calm     91 % 0.00 in 0 W/m2
03:13 52.0 °F 49.4 °F 29.95 in Calm     91 % 0.00 in 0 W/m2
03:18 52.0 °F 49.4 °F 29.95 in Calm     91 % 0.00 in 0 W/m2
03:23 52.2 °F 49.6 °F 29.95 in Calm     91 % 0.00 in 0 W/m2
03:28 52.2 °F 49.6 °F 29.95 in Calm     91 % 0.00 in 0 W/m2
03:33 52.2 °F 49.6 °F 29.95 in Calm     91 % 0.00 in 0 W/m2
03:35 52.0 °F 49.4 °F 29.95 in Calm     91 % 0.00 in 0 W/m2
03:40 52.0 °F 49.4 °F 29.95 in Calm     91 % 0.00 in 0 W/m2
03:45 51.8 °F 49.3 °F 29.95 in Calm     91 % 0.00 in 0 W/m2
03:50 51.6 °F 48.8 °F 29.95 in Calm     90 % 0.00 in 0 W/m2
03:55 51.6 °F 49.1 °F 29.95 in Calm     91 % 0.00 in 0 W/m2
04:00 51.4 °F 48.9 °F 29.95 in Calm     91 % 0.00 in 0 W/m2
04:05 51.4 °F 48.9 °F 29.94 in Calm     91 % 0.00 in 0 W/m2
04:10 51.3 °F 48.7 °F 29.94 in Calm     91 % 0.00 in 0 W/m2
04:15 51.3 °F 49.0 °F 29.94 in Calm     92 % 0.00 in 0 W/m2
04:20 51.4 °F 49.2 °F 29.94 in Calm     92 % 0.00 in 0 W/m2
04:25 52.0 °F 50.0 °F 29.94 in Calm     93 % 0.00 in 0 W/m2
04:30 52.3 °F 50.4 °F 29.94 in Calm     93 % 0.00 in 0 W/m2
04:31 52.3 °F 50.4 °F 29.94 in Calm     93 % 0.00 in 0 W/m2
04:36 52.3 °F 50.1 °F 29.94 in Calm     92 % 0.00 in 0 W/m2
04:41 52.2 °F 49.6 °F 29.94 in Calm     91 % 0.00 in 0 W/m2
04:46 52.2 °F 49.6 °F 29.94 in Calm     91 % 0.00 in 0 W/m2
04:51 52.0 °F 49.4 °F 29.94 in Calm     91 % 0.00 in 0 W/m2
04:56 52.0 °F 49.4 °F 29.93 in Calm     91 % 0.00 in 5 W/m2
05:01 52.2 °F 49.9 °F 29.94 in Calm     92 % 0.00 in 5 W/m2
05:06 52.2 °F 49.6 °F 29.93 in Calm     91 % 0.00 in 7 W/m2
05:11 52.2 °F 49.6 °F 29.93 in Calm     91 % 0.00 in 7 W/m2
05:16 52.2 °F 49.6 °F 29.93 in Calm     91 % 0.00 in 9 W/m2
05:21 52.2 °F 49.9 °F 29.93 in Calm     92 % 0.00 in 12 W/m2
05:26 52.3 °F 50.1 °F 29.93 in Calm     92 % 0.00 in 12 W/m2
05:31 52.3 °F 49.8 °F 29.93 in Calm     91 % 0.00 in 12 W/m2
05:36 52.3 °F 50.1 °F 29.93 in Calm     92 % 0.00 in 16 W/m2
05:41 52.5 °F 50.0 °F 29.93 in Calm     91 % 0.00 in 21 W/m2
05:46 52.3 °F 49.8 °F 29.93 in Calm     91 % 0.00 in 30 W/m2
05:51 52.5 °F 50.3 °F 29.93 in Calm     92 % 0.00 in 19 W/m2
05:56 52.9 °F 50.9 °F 29.93 in Calm     93 % 0.00 in 25 W/m2
06:01 53.2 °F 51.0 °F 29.93 in Calm     92 % 0.00 in 19 W/m2
06:06 53.4 °F 51.2 °F 29.93 in Calm     92 % 0.00 in 21 W/m2
06:11 53.4 °F 51.2 °F 29.93 in Calm     92 % 0.00 in 25 W/m2
06:16 53.4 °F 51.2 °F 29.93 in Calm     92 % 0.00 in 28 W/m2
06:21 53.8 °F 51.5 °F 29.93 in Calm     92 % 0.00 in 28 W/m2
06:26 54.0 °F 51.7 °F 29.93 in Calm     92 % 0.00 in 30 W/m2
06:31 54.1 °F 51.9 °F 29.93 in Calm     92 % 0.00 in 30 W/m2
06:36 54.0 °F 51.4 °F 29.93 in Calm     91 % 0.00 in 32 W/m2
06:41 53.8 °F 51.2 °F 29.92 in Calm     91 % 0.00 in 39 W/m2
06:46 54.0 °F 51.4 °F 29.92 in Calm     91 % 0.00 in 33 W/m2
06:51 54.3 °F 52.0 °F 29.92 in Calm     92 % 0.00 in 35 W/m2
06:56 54.7 °F 52.4 °F 29.92 in Calm     92 % 0.00 in 33 W/m2
07:01 55.2 °F 52.9 °F 29.92 in Calm     92 % 0.00 in 35 W/m2
07:06 55.8 °F 53.5 °F 29.92 in Calm     92 % 0.00 in 37 W/m2
07:11 56.5 °F 54.2 °F 29.92 in Calm     92 % 0.00 in 47 W/m2
07:16 57.2 °F 54.6 °F 29.92 in Calm     91 % 0.00 in 42 W/m2
07:21 57.9 °F 55.0 °F 29.92 in Calm     90 % 0.00 in 120 W/m2
07:26 58.6 °F 55.4 °F 29.92 in Calm     89 % 0.00 in 287 W/m2
07:32 59.7 °F 55.8 °F 29.92 in Calm     87 % 0.00 in 302 W/m2
07:37 60.6 °F 56.1 °F 29.92 in Calm     85 % 0.00 in 325 W/m2
07:42 61.5 °F 56.6 °F 29.92 in Calm     84 % 0.00 in 338 W/m2
07:47 62.4 °F 56.9 °F 29.92 in SSW 1.0 mph 8.0 mph 82 % 0.00 in 355 W/m2
07:52 63.1 °F 56.9 °F 29.91 in SSW 3.0 mph 8.0 mph 80 % 0.00 in 369 W/m2
07:57 63.9 °F 57.2 °F 29.91 in SSW 3.0 mph 7.0 mph 79 % 0.00 in 390 W/m2
08:02 64.8 °F 57.7 °F 29.91 in SSW 2.0 mph 6.0 mph 78 % 0.00 in 390 W/m2
08:07 65.3 °F 57.5 °F 29.91 in SSW 3.0 mph 7.0 mph 76 % 0.00 in 397 W/m2
08:12 65.8 °F 58.1 °F 29.91 in SSW 3.0 mph 7.0 mph 76 % 0.00 in 413 W/m2
08:17 66.6 °F 58.4 °F 29.91 in SSW 2.0 mph 6.0 mph 75 % 0.00 in 427 W/m2
08:22 67.5 °F 58.9 °F 29.91 in SW 2.0 mph 6.0 mph 74 % 0.00 in 441 W/m2
08:27 68.5 °F 58.4 °F 29.91 in WNW 2.0 mph 6.0 mph 70 % 0.00 in 461 W/m2
08:32 69.4 °F 58.4 °F 29.91 in WNW 2.0 mph 6.0 mph 68 % 0.00 in 485 W/m2
08:37 69.6 °F 58.2 °F 29.91 in WSW 3.0 mph 8.0 mph 67 % 0.00 in 520 W/m2
08:42 69.3 °F 57.8 °F 29.91 in SW 5.0 mph 10.0 mph 67 % 0.00 in 598 W/m2
08:47 69.1 °F 57.7 °F 29.91 in SW 7.0 mph 13.0 mph 67 % 0.00 in 612 W/m2
08:52 68.9 °F 57.5 °F 29.91 in SW 8.0 mph 13.0 mph 67 % 0.00 in 190 W/m2
08:57 68.5 °F 57.6 °F 29.90 in SSW 7.0 mph 12.0 mph 68 % 0.00 in 309 W/m2
09:02 68.7 °F 58.1 °F 29.90 in SSW 6.0 mph 11.0 mph 69 % 0.00 in 241 W/m2
09:07 68.9 °F 57.9 °F 29.90 in SW 5.0 mph 11.0 mph 68 % 0.00 in 257 W/m2
09:12 68.7 °F 56.9 °F 29.90 in SW 7.0 mph 15.0 mph 66 % 0.00 in 285 W/m2
09:22 70.0 °F 58.1 °F 29.90 in SW 6.0 mph 11.0 mph 66 % 0.00 in 638 W/m2
09:27 70.9 °F 58.1 °F 29.90 in West 6.0 mph 12.0 mph 64 % 0.00 in 758 W/m2
09:32 71.4 °F 58.2 °F 29.90 in West 8.0 mph 14.0 mph 63 % 0.00 in 766 W/m2
09:37 71.4 °F 57.7 °F 29.90 in West 8.0 mph 14.0 mph 62 % 0.00 in 220 W/m2
09:42 71.1 °F 57.8 °F 29.90 in West 7.0 mph 13.0 mph 63 % 0.00 in 186 W/m2
09:47 70.9 °F 57.2 °F 29.90 in West 8.0 mph 13.0 mph 62 % 0.00 in 181 W/m2
09:52 70.5 °F 57.3 °F 29.90 in West 8.0 mph 13.0 mph 63 % 0.00 in 645 W/m2
09:57 70.3 °F 57.6 °F 29.90 in WSW 8.0 mph 12.0 mph 64 % 0.00 in 149 W/m2
10:02 70.3 °F 57.6 °F 29.89 in WSW 8.0 mph 13.0 mph 64 % 0.00 in 172 W/m2
10:07 70.2 °F 57.8 °F 29.89 in West 7.0 mph 13.0 mph 65 % 0.00 in 830 W/m2
10:12 70.5 °F 58.2 °F 29.89 in WSW 8.0 mph 15.0 mph 65 % 0.00 in 380 W/m2
10:17 70.9 °F 58.5 °F 29.89 in West 9.0 mph 15.0 mph 65 % 0.00 in 780 W/m2
10:22 71.2 °F 58.4 °F 29.89 in West 9.0 mph 13.0 mph 64 % 0.00 in 758 W/m2
10:27 71.2 °F 58.4 °F 29.89 in WSW 8.0 mph 13.0 mph 64 % 0.00 in 846 W/m2
10:29 71.2 °F 57.5 °F 29.89 in WSW 9.0 mph 18.0 mph 62 % 0.00 in 874 W/m2
10:34 71.2 °F 58.0 °F 29.89 in SW 9.0 mph 18.0 mph 63 % 0.00 in 805 W/m2
10:39 71.2 °F 58.0 °F 29.89 in WSW 8.0 mph 14.0 mph 63 % 0.00 in 823 W/m2
10:44 71.2 °F 58.4 °F 29.89 in SW 8.0 mph 13.0 mph 64 % 0.00 in 789 W/m2
10:49 71.8 °F 58.9 °F 29.89 in SW 8.0 mph 13.0 mph 64 % 0.00 in 800 W/m2
10:54 72.0 °F 58.7 °F 29.89 in SW 9.0 mph 13.0 mph 63 % 0.00 in 802 W/m2
10:59 72.1 °F 58.4 °F 29.88 in SW 8.0 mph 13.0 mph 62 % 0.00 in 807 W/m2
11:04 72.7 °F 58.5 °F 29.88 in WSW 8.0 mph 14.0 mph 61 % 0.00 in 833 W/m2
11:09 72.9 °F 58.6 °F 29.88 in WSW 8.0 mph 14.0 mph 61 % 0.00 in 863 W/m2
11:15 73.2 °F 58.5 °F 29.88 in WSW 8.0 mph 13.0 mph 60 % 0.00 in 898 W/m2
11:20 73.6 °F 58.4 °F 29.88 in WSW 9.0 mph 13.0 mph 59 % 0.00 in 1027 W/m2
11:25 73.9 °F 58.7 °F 29.88 in WSW 9.0 mph 13.0 mph 59 % 0.00 in 986 W/m2
11:30 73.8 °F 58.5 °F 29.88 in SW 9.0 mph 16.0 mph 59 % 0.00 in 970 W/m2
11:35 73.6 °F 58.8 °F 29.87 in SW 8.0 mph 16.0 mph 60 % 0.00 in 485 W/m2
11:40 73.9 °F 59.2 °F 29.88 in SW 7.0 mph 13.0 mph 60 % 0.00 in 466 W/m2
11:45 73.9 °F 58.7 °F 29.88 in WSW 8.0 mph 13.0 mph 59 % 0.00 in 503 W/m2
11:50 73.9 °F 58.7 °F 29.87 in WSW 8.0 mph 13.0 mph 59 % 0.00 in 454 W/m2
11:55 73.8 °F 59.0 °F 29.87 in SW 8.0 mph 13.0 mph 60 % 0.00 in 531 W/m2
12:00 73.9 °F 58.7 °F 29.87 in SW 8.0 mph 13.0 mph 59 % 0.00 in 1037 W/m2
12:05 74.7 °F 59.4 °F 29.87 in SW 8.0 mph 13.0 mph 59 % 0.00 in 417 W/m2
12:10 75.0 °F 59.7 °F 29.87 in SSW 7.0 mph 15.0 mph 59 % 0.00 in 441 W/m2
12:15 75.0 °F 59.2 °F 29.86 in SSW 8.0 mph 16.0 mph 58 % 0.00 in 1049 W/m2
12:20 75.0 °F 59.7 °F 29.86 in SW 8.0 mph 16.0 mph 59 % 0.00 in 299 W/m2
12:25 75.0 °F 58.3 °F 29.86 in WSW 7.0 mph 13.0 mph 56 % 0.00 in 306 W/m2
12:30 74.7 °F 58.4 °F 29.86 in WSW 8.0 mph 13.0 mph 57 % 0.00 in 1086 W/m2
12:35 75.0 °F 60.2 °F 29.86 in WSW 6.0 mph 11.0 mph 60 % 0.00 in 1093 W/m2
12:40 75.2 °F 58.4 °F 29.86 in WSW 7.0 mph 12.0 mph 56 % 0.00 in 262 W/m2
12:45 75.0 °F 59.2 °F 29.86 in WSW 7.0 mph 12.0 mph 58 % 0.00 in 408 W/m2
12:50 75.4 °F 59.6 °F 29.86 in West 6.0 mph 10.0 mph 58 % 0.00 in 1111 W/m2
12:55 75.6 °F 58.3 °F 29.86 in WSW 8.0 mph 12.0 mph 55 % 0.00 in 230 W/m2
13:00 75.4 °F 59.1 °F 29.85 in WSW 8.0 mph 12.0 mph 57 % 0.00 in 1137 W/m2
13:05 75.7 °F 58.4 °F 29.85 in WSW 8.0 mph 14.0 mph 55 % 0.00 in 262 W/m2
13:10 75.4 °F 58.1 °F 29.85 in WSW 9.0 mph 14.0 mph 55 % 0.00 in 265 W/m2
13:15 75.4 °F 58.1 °F 29.85 in WSW 8.0 mph 13.0 mph 55 % 0.00 in 1000 W/m2
13:20 75.4 °F 58.1 °F 29.85 in SW 8.0 mph 13.0 mph 55 % 0.00 in 1020 W/m2
13:25 75.4 °F 58.1 °F 29.85 in SW 9.0 mph 13.0 mph 55 % 0.00 in 724 W/m2
13:30 75.0 °F 57.2 °F 29.85 in SW 9.0 mph 14.0 mph 54 % 0.00 in 700 W/m2
13:35 75.0 °F 58.3 °F 29.85 in SW 9.0 mph 16.0 mph 56 % 0.00 in 557 W/m2
13:40 75.4 °F 58.1 °F 29.84 in WSW 9.0 mph 16.0 mph 55 % 0.00 in 940 W/m2
13:45 75.9 °F 59.1 °F 29.84 in West 7.0 mph 13.0 mph 56 % 0.00 in 979 W/m2
13:50 76.3 °F 58.9 °F 29.84 in WSW 7.0 mph 13.0 mph 55 % 0.00 in 192 W/m2
13:55 75.9 °F 58.6 °F 29.83 in WSW 8.0 mph 13.0 mph 55 % 0.00 in 306 W/m2
14:00 75.7 °F 57.9 °F 29.84 in WSW 9.0 mph 14.0 mph 54 % 0.00 in 320 W/m2
14:05 75.7 °F 58.4 °F 29.83 in WSW 8.0 mph 13.0 mph 55 % 0.00 in 1021 W/m2
14:10 75.9 °F 58.6 °F 29.83 in WSW 8.0 mph 13.0 mph 55 % 0.00 in 1014 W/m2
14:15 76.5 °F 58.1 °F 29.83 in SW 7.0 mph 13.0 mph 53 % 0.00 in 1093 W/m2
14:20 76.6 °F 58.2 °F 29.83 in SW 7.0 mph 12.0 mph 53 % 0.00 in 1009 W/m2
14:25 76.5 °F 58.6 °F 29.83 in SW 7.0 mph 12.0 mph 54 % 0.00 in 981 W/m2
14:30 76.5 °F 58.1 °F 29.83 in SW 6.0 mph 11.0 mph 53 % 0.00 in 287 W/m2
14:35 76.3 °F 57.9 °F 29.83 in SSW 6.0 mph 11.0 mph 53 % 0.00 in 1079 W/m2
14:40 76.5 °F 58.1 °F 29.83 in SW 6.0 mph 11.0 mph 53 % 0.00 in 223 W/m2
14:45 76.3 °F 57.9 °F 29.83 in WSW 6.0 mph 11.0 mph 53 % 0.00 in 234 W/m2
14:50 76.1 °F 58.2 °F 29.83 in West 6.0 mph 11.0 mph 54 % 0.00 in 216 W/m2
14:55 76.1 °F 58.8 °F 29.83 in West 6.0 mph 10.0 mph 55 % 0.00 in 357 W/m2
15:00 76.3 °F 58.4 °F 29.83 in West 6.0 mph 11.0 mph 54 % 0.00 in 279 W/m2
15:05 76.3 °F 58.4 °F 29.82 in West 6.0 mph 12.0 mph 54 % 0.00 in 234 W/m2
15:10 76.3 °F 57.9 °F 29.82 in West 6.0 mph 12.0 mph 53 % 0.00 in 1051 W/m2
15:15 76.3 °F 58.4 °F 29.82 in SW 5.0 mph 13.0 mph 54 % 0.00 in 327 W/m2
15:20 76.3 °F 57.9 °F 29.82 in WSW 6.0 mph 13.0 mph 53 % 0.00 in 237 W/m2
15:25 76.3 °F 57.9 °F 29.82 in WSW 5.0 mph 10.0 mph 53 % 0.00 in 371 W/m2
15:30 76.5 °F 59.1 °F 29.82 in West 5.0 mph 10.0 mph 55 % 0.00 in 984 W/m2
15:35 77.0 °F 59.1 °F 29.82 in WNW 5.0 mph 10.0 mph 54 % 0.00 in 193 W/m2
15:41 77.2 °F 58.7 °F 29.82 in WNW 4.0 mph 9.0 mph 53 % 0.00 in 221 W/m2
15:46 77.2 °F 59.2 °F 29.82 in West 5.0 mph 10.0 mph 54 % 0.00 in 912 W/m2
15:51 77.9 °F 59.4 °F 29.82 in West 6.0 mph 11.0 mph 53 % 0.00 in 893 W/m2
15:56 78.3 °F 59.2 °F 29.81 in West 5.0 mph 11.0 mph 52 % 0.00 in 782 W/m2
16:01 78.4 °F 58.3 °F 29.81 in WNW 4.0 mph 10.0 mph 50 % 0.00 in 186 W/m2
16:06 78.1 °F 59.0 °F 29.81 in WNW 6.0 mph 13.0 mph 52 % 0.00 in 218 W/m2
16:11 77.7 °F 58.7 °F 29.81 in West 6.0 mph 13.0 mph 52 % 0.00 in 232 W/m2
16:16 77.5 °F 58.5 °F 29.81 in West 6.0 mph 13.0 mph 52 % 0.00 in 220 W/m2
16:21 77.2 °F 58.2 °F 29.81 in West 7.0 mph 13.0 mph 52 % 0.00 in 178 W/m2
16:26 76.6 °F 58.2 °F 29.81 in West 6.0 mph 12.0 mph 53 % 0.00 in 332 W/m2
16:31 77.4 °F 58.9 °F 29.81 in WNW 6.0 mph 14.0 mph 53 % 0.00 in 809 W/m2
16:36 77.9 °F 58.9 °F 29.81 in WNW 8.0 mph 14.0 mph 52 % 0.00 in 190 W/m2
16:41 77.7 °F 59.2 °F 29.81 in WNW 8.0 mph 13.0 mph 53 % 0.00 in 721 W/m2
16:46 77.5 °F 58.5 °F 29.81 in NW 6.0 mph 13.0 mph 52 % 0.00 in 701 W/m2
16:51 77.5 °F 59.1 °F 29.81 in NW 6.0 mph 11.0 mph 53 % 0.00 in 670 W/m2
16:56 78.1 °F 59.6 °F 29.81 in NW 8.0 mph 15.0 mph 53 % 0.00 in 657 W/m2
17:01 78.3 °F 59.2 °F 29.80 in WNW 7.0 mph 15.0 mph 52 % 0.00 in 643 W/m2
17:06 78.1 °F 59.0 °F 29.80 in WNW 7.0 mph 13.0 mph 52 % 0.00 in 594 W/m2
17:11 77.7 °F 58.7 °F 29.80 in NW 7.0 mph 13.0 mph 52 % 0.00 in 585 W/m2
17:16 77.7 °F 58.7 °F 29.80 in NW 7.0 mph 13.0 mph 52 % 0.00 in 564 W/m2
17:21 78.1 °F 59.0 °F 29.80 in WNW 8.0 mph 14.0 mph 52 % 0.00 in 540 W/m2
17:26 77.9 °F 58.9 °F 29.80 in West 9.0 mph 15.0 mph 52 % 0.00 in 526 W/m2
17:31 77.7 °F 58.7 °F 29.80 in WNW 9.0 mph 15.0 mph 52 % 0.00 in 538 W/m2
17:36 77.7 °F 58.7 °F 29.80 in WNW 8.0 mph 14.0 mph 52 % 0.00 in 538 W/m2
17:41 77.7 °F 58.7 °F 29.79 in WNW 7.0 mph 14.0 mph 52 % 0.00 in 483 W/m2
17:46 77.9 °F 59.4 °F 29.79 in WNW 6.0 mph 12.0 mph 53 % 0.00 in 462 W/m2
17:51 78.1 °F 59.0 °F 29.80 in WNW 7.0 mph 12.0 mph 52 % 0.00 in 450 W/m2
17:56 78.1 °F 59.0 °F 29.79 in WNW 7.0 mph 12.0 mph 52 % 0.00 in 462 W/m2
18:01 77.7 °F 58.7 °F 29.79 in WNW 7.0 mph 12.0 mph 52 % 0.00 in 464 W/m2
18:06 77.5 °F 58.5 °F 29.79 in WNW 8.0 mph 12.0 mph 52 % 0.00 in 448 W/m2
18:11 77.5 °F 58.5 °F 29.79 in WNW 7.0 mph 12.0 mph 52 % 0.00 in 93 W/m2
18:16 77.4 °F 58.4 °F 29.79 in WNW 7.0 mph 11.0 mph 52 % 0.00 in 424 W/m2
18:19 77.4 °F 58.4 °F 29.79 in WNW 8.0 mph 13.0 mph 52 % 0.00 in 392 W/m2
18:25 77.4 °F 58.9 °F 29.78 in WNW 8.0 mph 14.0 mph 53 % 0.00 in 376 W/m2
18:30 77.0 °F 59.6 °F 29.78 in NW 7.0 mph 14.0 mph 55 % 0.00 in 69 W/m2
18:35 76.5 °F 59.6 °F 29.78 in NW 6.0 mph 10.0 mph 56 % 0.00 in 90 W/m2
18:40 75.9 °F 59.6 °F 29.78 in NW 7.0 mph 15.0 mph 57 % 0.00 in 369 W/m2
18:45 75.7 °F 59.4 °F 29.78 in NW 7.0 mph 15.0 mph 57 % 0.00 in 320 W/m2
18:50 75.6 °F 59.7 °F 29.78 in NNW 7.0 mph 12.0 mph 58 % 0.00 in 287 W/m2
18:55 75.6 °F 59.7 °F 29.78 in NNW 7.0 mph 12.0 mph 58 % 0.00 in 274 W/m2
19:00 75.6 °F 60.2 °F 29.78 in NW 7.0 mph 11.0 mph 59 % 0.00 in 262 W/m2
19:05 75.4 °F 59.6 °F 29.78 in NW 6.0 mph 13.0 mph 58 % 0.00 in 253 W/m2
19:10 75.4 °F 59.6 °F 29.78 in NW 6.0 mph 13.0 mph 58 % 0.00 in 241 W/m2
19:15 75.0 °F 59.2 °F 29.78 in NW 6.0 mph 12.0 mph 58 % 0.00 in 229 W/m2
19:20 75.2 °F 59.4 °F 29.78 in NW 6.0 mph 12.0 mph 58 % 0.00 in 214 W/m2
19:25 75.0 °F 59.2 °F 29.78 in NW 6.0 mph 11.0 mph 58 % 0.00 in 204 W/m2
19:30 75.0 °F 59.2 °F 29.78 in NW 5.0 mph 11.0 mph 58 % 0.00 in 193 W/m2
19:35 74.8 °F 59.1 °F 29.78 in NW 5.0 mph 10.0 mph 58 % 0.00 in 179 W/m2
19:40 74.7 °F 58.9 °F 29.78 in NW 6.0 mph 10.0 mph 58 % 0.00 in 174 W/m2
19:45 74.7 °F 59.4 °F 29.78 in NW 5.0 mph 9.0 mph 59 % 0.00 in 171 W/m2
19:50 74.5 °F 59.2 °F 29.79 in NW 5.0 mph 10.0 mph 59 % 0.00 in 172 W/m2
19:56 74.3 °F 59.0 °F 29.79 in NW 6.0 mph 10.0 mph 59 % 0.00 in 151 W/m2
20:01 74.1 °F 59.3 °F 29.79 in NW 6.0 mph 10.0 mph 60 % 0.00 in 156 W/m2
20:06 73.8 °F 59.0 °F 29.78 in NW 7.0 mph 12.0 mph 60 % 0.00 in 98 W/m2
20:11 73.0 °F 58.8 °F 29.78 in NW 7.0 mph 12.0 mph 61 % 0.00 in 67 W/m2
20:16 72.7 °F 58.9 °F 29.79 in NW 6.0 mph 11.0 mph 62 % 0.00 in 56 W/m2
20:21 72.3 °F 58.6 °F 29.78 in NW 5.0 mph 10.0 mph 62 % 0.00 in 74 W/m2
20:26 72.1 °F 58.4 °F 29.78 in NW 5.0 mph 10.0 mph 62 % 0.00 in 69 W/m2
20:31 71.8 °F 58.5 °F 29.78 in NW 6.0 mph 13.0 mph 63 % 0.00 in 44 W/m2
20:36 71.2 °F 58.4 °F 29.78 in NW 7.0 mph 13.0 mph 64 % 0.00 in 37 W/m2
20:41 70.9 °F 58.5 °F 29.79 in NW 6.0 mph 12.0 mph 65 % 0.00 in 35 W/m2
20:46 70.5 °F 58.2 °F 29.79 in NW 6.0 mph 10.0 mph 65 % 0.00 in 35 W/m2
20:51 70.2 °F 58.3 °F 29.79 in NW 6.0 mph 10.0 mph 66 % 0.00 in 26 W/m2
21:01 69.6 °F 58.2 °F 29.79 in NW 5.0 mph 10.0 mph 67 % 0.00 in 12 W/m2
21:06 69.4 °F 58.0 °F 29.80 in NW 5.0 mph 11.0 mph 67 % 0.00 in 12 W/m2
21:11 69.3 °F 58.2 °F 29.79 in NW 5.0 mph 11.0 mph 68 % 0.00 in 7 W/m2
21:16 69.1 °F 58.5 °F 29.80 in NNW 5.0 mph 10.0 mph 69 % 0.00 in 5 W/m2
21:21 68.9 °F 58.3 °F 29.80 in NNW 5.0 mph 10.0 mph 69 % 0.00 in 0 W/m2
21:26 68.7 °F 58.5 °F 29.80 in NW 4.0 mph 8.0 mph 70 % 0.00 in 0 W/m2
21:31 68.5 °F 58.4 °F 29.80 in NW 3.0 mph 9.0 mph 70 % 0.00 in 0 W/m2
21:36 68.4 °F 58.6 °F 29.80 in NW 4.0 mph 9.0 mph 71 % 0.00 in 0 W/m2
21:41 68.2 °F 58.4 °F 29.81 in NNW 4.0 mph 9.0 mph 71 % 0.00 in 0 W/m2
21:46 67.8 °F 58.5 °F 29.81 in NNW 5.0 mph 9.0 mph 72 % 0.00 in 0 W/m2
21:51 67.6 °F 58.3 °F 29.81 in NW 5.0 mph 9.0 mph 72 % 0.00 in 0 W/m2
21:56 67.5 °F 58.1 °F 29.81 in NW 4.0 mph 9.0 mph 72 % 0.00 in 0 W/m2
22:01 67.5 °F 58.5 °F 29.81 in NW 4.0 mph 10.0 mph 73 % 0.00 in 0 W/m2
22:06 67.1 °F 58.2 °F 29.81 in NNW 5.0 mph 10.0 mph 73 % 0.00 in 0 W/m2
22:11 66.9 °F 58.0 °F 29.81 in NNW 5.0 mph 9.0 mph 73 % 0.00 in 0 W/m2
22:17 66.7 °F 57.8 °F 29.81 in NNW 4.0 mph 10.0 mph 73 % 0.00 in 0 W/m2
22:22 66.4 °F 57.5 °F 29.81 in NNW 5.0 mph 11.0 mph 73 % 0.00 in 0 W/m2
22:23 66.2 °F 57.3 °F 29.81 in NNW 6.0 mph 11.0 mph 73 % 0.00 in 0 W/m2
22:28 66.0 °F 57.5 °F 29.81 in NNW 6.0 mph 11.0 mph 74 % 0.00 in 0 W/m2
22:33 65.8 °F 57.3 °F 29.81 in NW 5.0 mph 9.0 mph 74 % 0.00 in 0 W/m2
22:38 65.7 °F 57.5 °F 29.80 in NNW 4.0 mph 8.0 mph 75 % 0.00 in 0 W/m2
22:43 65.7 °F 57.5 °F 29.81 in NW 4.0 mph 8.0 mph 75 % 0.00 in 0 W/m2
22:48 65.7 °F 57.5 °F 29.81 in NW 4.0 mph 7.0 mph 75 % 0.00 in 0 W/m2
22:53 65.5 °F 57.3 °F 29.80 in NW 4.0 mph 8.0 mph 75 % 0.00 in 0 W/m2
22:58 65.5 °F 57.3 °F 29.80 in NW 5.0 mph 8.0 mph 75 % 0.00 in 0 W/m2
23:03 65.3 °F 57.5 °F 29.80 in NW 4.0 mph 8.0 mph 76 % 0.00 in 0 W/m2
23:08 65.1 °F 57.4 °F 29.81 in WNW 3.0 mph 7.0 mph 76 % 0.00 in 0 W/m2
23:13 65.1 °F 57.4 °F 29.81 in NW 3.0 mph 7.0 mph 76 % 0.00 in 0 W/m2
23:18 65.1 °F 57.7 °F 29.81 in NW 2.0 mph 5.0 mph 77 % 0.00 in 0 W/m2
23:24 65.1 °F 57.7 °F 29.81 in NW 1.0 mph 5.0 mph 77 % 0.00 in 0 W/m2
23:29 64.9 °F 57.9 °F 29.81 in WNW 2.0 mph 7.0 mph 78 % 0.00 in 0 W/m2
23:34 64.9 °F 57.9 °F 29.81 in WNW 4.0 mph 7.0 mph 78 % 0.00 in 0 W/m2
23:39 64.8 °F 58.1 °F 29.81 in WNW 4.0 mph 7.0 mph 79 % 0.00 in 0 W/m2
23:44 64.4 °F 57.7 °F 29.80 in NW 3.0 mph 7.0 mph 79 % 0.00 in 0 W/m2
23:49 64.0 °F 57.4 °F 29.81 in NW 3.0 mph 7.0 mph 79 % 0.00 in 0 W/m2
23:54 63.9 °F 57.2 °F 29.81 in NW 3.0 mph 7.0 mph 79 % 0.00 in 0 W/m2
23:59 63.9 °F 57.6 °F 29.80 in NW 1.0 mph 4.0 mph 80 % 0.00 in 0 W/m2
Delerius-Weather
Compliments of Weather Underground - 2.25 mb

Data updates at regular intervals.